createdAt,value
2023-09-17T00:00:39.887Z,16.70
2023-09-17T00:03:06.666Z,15.73
2023-09-17T00:05:33.412Z,14.23
2023-09-17T00:07:59.967Z,13.88
2023-09-17T00:10:27.131Z,13.57
2023-09-17T00:12:56.033Z,15.15
2023-09-17T00:15:24.075Z,16.20
2023-09-17T00:17:50.687Z,14.13
2023-09-17T00:20:17.339Z,15.23
2023-09-17T00:22:43.949Z,16.90
2023-09-17T00:25:11.345Z,15.52
2023-09-17T00:27:38.195Z,14.73
2023-09-17T00:30:05.188Z,17.33
2023-09-17T00:32:31.759Z,18.15
2023-09-17T00:34:58.366Z,17.27
2023-09-17T00:37:24.933Z,21.40
2023-09-17T00:39:51.637Z,18.05
2023-09-17T00:42:18.267Z,19.30
2023-09-17T00:44:44.832Z,23.50
2023-09-17T00:47:11.748Z,17.05
2023-09-17T00:49:38.562Z,18.20
2023-09-17T00:52:16.674Z,16.67
2023-09-17T00:54:45.610Z,15.85
2023-09-17T00:57:13.193Z,15.15
2023-09-17T00:59:40.421Z,16.55
2023-09-17T01:02:07.117Z,16.63
2023-09-17T01:04:34.220Z,19.83
2023-09-17T01:07:01.369Z,18.52
2023-09-17T01:09:29.866Z,16.58
2023-09-17T01:11:57.175Z,16.23
2023-09-17T01:14:23.832Z,17.25
2023-09-17T01:16:51.039Z,13.93
2023-09-17T01:19:25.308Z,18.60
2023-09-17T01:22:03.550Z,17.30
2023-09-17T01:24:44.190Z,13.93
2023-09-17T01:27:13.980Z,16.90
2023-09-17T01:29:42.725Z,16.80
2023-09-17T01:32:11.484Z,16.77
2023-09-17T01:34:41.259Z,15.20
2023-09-17T01:37:35.536Z,16.73
2023-09-17T01:40:12.386Z,17.70
2023-09-17T01:42:45.426Z,15.32
2023-09-17T01:45:17.749Z,15.57
2023-09-17T01:47:47.181Z,17.05
2023-09-17T01:50:17.071Z,13.25
2023-09-17T01:52:45.292Z,15.80
2023-09-17T01:55:13.385Z,14.30
2023-09-17T01:57:40.799Z,15.07
2023-09-17T02:00:15.881Z,16.13
2023-09-17T02:02:50.576Z,18.42
2023-09-17T02:05:18.408Z,16.08
2023-09-17T02:07:45.760Z,14.35
2023-09-17T02:10:13.056Z,14.48
2023-09-17T02:12:40.194Z,16.52
2023-09-17T02:15:07.639Z,15.73
2023-09-17T02:17:34.455Z,18.90
2023-09-17T02:20:01.093Z,12.57
2023-09-17T02:22:28.056Z,14.68
2023-09-17T02:24:55.062Z,16.15
2023-09-17T02:27:21.887Z,16.40
2023-09-17T02:29:48.545Z,18.00
2023-09-17T02:32:15.179Z,17.88
2023-09-17T02:34:41.993Z,16.15
2023-09-17T02:37:08.653Z,15.27
2023-09-17T02:39:36.615Z,15.60
2023-09-17T02:42:04.330Z,14.10
2023-09-17T02:44:30.910Z,14.90
2023-09-17T02:46:57.688Z,16.38
2023-09-17T02:49:24.866Z,17.55
2023-09-17T02:51:52.069Z,18.08
2023-09-17T02:54:18.678Z,16.27
2023-09-17T02:56:45.297Z,16.65
2023-09-17T02:59:12.331Z,19.50
2023-09-17T03:01:39.553Z,19.58
2023-09-17T03:04:06.793Z,17.17
2023-09-17T03:06:34.562Z,15.35
2023-09-17T03:09:02.416Z,16.15
2023-09-17T03:11:29.556Z,19.48
2023-09-17T03:14:00.540Z,18.10
2023-09-17T03:16:27.269Z,17.42
2023-09-17T03:18:53.906Z,15.50
2023-09-17T03:21:20.869Z,15.43
2023-09-17T03:23:47.469Z,17.63
2023-09-17T03:26:14.134Z,16.80
2023-09-17T03:28:40.797Z,17.00
2023-09-17T03:31:07.566Z,17.20
2023-09-17T03:33:37.218Z,19.45
2023-09-17T03:36:04.645Z,19.30
2023-09-17T03:38:31.467Z,23.23
2023-09-17T03:41:00.463Z,26.13
2023-09-17T03:43:28.588Z,24.58
2023-09-17T03:45:55.231Z,20.88
2023-09-17T03:48:22.837Z,23.90
2023-09-17T03:50:50.460Z,25.92
2023-09-17T03:53:17.572Z,24.52
2023-09-17T03:55:46.054Z,27.80
2023-09-17T03:58:13.438Z,25.27
2023-09-17T04:00:43.353Z,20.38
2023-09-17T04:03:10.159Z,21.03
2023-09-17T04:05:37.476Z,22.42
2023-09-17T04:08:04.474Z,20.10
2023-09-17T04:10:31.480Z,20.90
2023-09-17T04:12:58.131Z,18.00
2023-09-17T04:15:24.791Z,22.13
2023-09-17T04:17:52.435Z,22.17
2023-09-17T04:20:20.502Z,24.38
2023-09-17T04:22:50.198Z,25.52
2023-09-17T04:25:20.060Z,21.85
2023-09-17T04:27:48.846Z,21.23
2023-09-17T04:30:18.296Z,22.20
2023-09-17T04:32:47.225Z,23.00
2023-09-17T04:35:19.704Z,19.52
2023-09-17T04:37:49.678Z,22.77
2023-09-17T04:40:19.261Z,24.02
2023-09-17T04:42:49.973Z,22.83
2023-09-17T04:45:36.476Z,20.13
2023-09-17T04:48:10.442Z,23.23
2023-09-17T04:50:40.279Z,27.63
2023-09-17T04:53:07.155Z,28.33
2023-09-17T04:55:34.428Z,24.13
2023-09-17T04:58:01.337Z,23.90
2023-09-17T05:00:28.418Z,24.40
2023-09-17T05:02:55.626Z,23.33
2023-09-17T05:05:25.034Z,23.27
2023-09-17T05:07:53.610Z,26.15
2023-09-17T05:10:20.394Z,24.95
2023-09-17T05:12:47.210Z,24.33
2023-09-17T05:15:14.087Z,25.30
2023-09-17T05:17:42.045Z,20.85
2023-09-17T05:20:10.018Z,22.83
2023-09-17T05:22:37.245Z,23.10
2023-09-17T05:25:05.473Z,19.60
2023-09-17T05:27:32.616Z,21.25
2023-09-17T05:30:01.716Z,18.98
2023-09-17T05:32:29.742Z,19.92
2023-09-17T05:35:00.989Z,21.50
2023-09-17T05:37:28.296Z,17.88
2023-09-17T05:39:55.910Z,18.15
2023-09-17T05:42:22.545Z,18.98
2023-09-17T05:44:49.336Z,22.92
2023-09-17T05:47:15.976Z,28.90
2023-09-17T05:49:43.042Z,23.77
2023-09-17T05:52:09.815Z,28.23
2023-09-17T05:54:37.609Z,28.88
2023-09-17T05:57:04.468Z,25.13
2023-09-17T05:59:32.665Z,22.23
2023-09-17T06:02:00.434Z,25.20
2023-09-17T06:04:27.644Z,23.60
2023-09-17T06:06:55.415Z,26.52
2023-09-17T06:09:22.025Z,26.90
2023-09-17T06:11:51.152Z,29.08
2023-09-17T06:14:18.407Z,22.13
2023-09-17T06:16:56.553Z,27.90
2023-09-17T06:19:25.567Z,23.48
2023-09-17T06:21:53.364Z,23.38
2023-09-17T06:24:20.100Z,23.67
2023-09-17T06:26:46.846Z,24.15
2023-09-17T06:29:13.413Z,26.52
2023-09-17T06:31:41.329Z,27.65
2023-09-17T06:34:08.675Z,30.10
2023-09-17T06:36:40.066Z,32.55
2023-09-17T06:39:07.928Z,29.00
2023-09-17T06:41:38.040Z,34.97
2023-09-17T06:44:05.922Z,33.03
2023-09-17T06:46:33.205Z,34.28
2023-09-17T06:49:00.203Z,36.45
2023-09-17T06:51:26.913Z,32.20
2023-09-17T06:53:53.842Z,32.22
2023-09-17T06:56:20.887Z,32.17
2023-09-17T06:58:47.454Z,33.03
2023-09-17T07:01:14.095Z,27.52
2023-09-17T07:03:40.706Z,22.77
2023-09-17T07:06:07.372Z,21.75
2023-09-17T07:08:34.050Z,19.63
2023-09-17T07:11:01.869Z,20.15
2023-09-17T07:13:28.561Z,18.88
2023-09-17T07:15:55.114Z,19.00
2023-09-17T07:18:22.488Z,19.02
2023-09-17T07:20:50.978Z,17.10
2023-09-17T07:23:17.583Z,16.47
2023-09-17T07:25:45.935Z,16.60
2023-09-17T07:28:12.733Z,14.30
2023-09-17T07:30:39.747Z,12.95
2023-09-17T07:33:06.862Z,16.88
2023-09-17T07:35:34.350Z,14.35
2023-09-17T07:38:01.156Z,14.68
2023-09-17T07:40:28.403Z,12.90
2023-09-17T07:42:55.004Z,13.85
2023-09-17T07:45:21.585Z,13.05
2023-09-17T07:47:48.187Z,11.55
2023-09-17T07:50:14.811Z,11.77
2023-09-17T07:52:42.734Z,11.55
2023-09-17T07:55:10.501Z,11.18
2023-09-17T07:57:37.286Z,14.52
2023-09-17T08:00:05.584Z,11.50
2023-09-17T08:02:39.793Z,11.65
2023-09-17T08:05:08.386Z,14.52
2023-09-17T08:07:35.979Z,12.57
2023-09-17T08:10:04.704Z,12.82
2023-09-17T08:12:33.826Z,10.85
2023-09-17T08:15:00.535Z,11.82
2023-09-17T08:17:27.233Z,11.32
2023-09-17T08:19:55.396Z,10.88
2023-09-17T08:22:23.405Z,13.50
2023-09-17T08:24:50.008Z,11.48
2023-09-17T08:27:18.132Z,10.43
2023-09-17T08:29:45.017Z,9.90
2023-09-17T08:32:12.280Z,9.05
2023-09-17T08:34:38.976Z,10.40
2023-09-17T08:37:05.732Z,9.10
2023-09-17T08:39:32.647Z,11.05
2023-09-17T08:42:02.822Z,10.27
2023-09-17T08:44:32.096Z,9.82
2023-09-17T08:47:00.099Z,9.00
2023-09-17T08:49:26.860Z,8.73
2023-09-17T08:51:58.259Z,10.18
2023-09-17T08:54:38.462Z,6.88
2023-09-17T08:57:07.037Z,7.63
2023-09-17T08:59:35.381Z,6.55
2023-09-17T09:02:08.746Z,8.00
2023-09-17T09:04:37.199Z,6.25
2023-09-17T09:07:05.470Z,8.73
2023-09-17T09:09:33.260Z,10.63
2023-09-17T09:12:00.169Z,8.02
2023-09-17T09:14:27.064Z,6.32
2023-09-17T09:16:53.825Z,6.53
2023-09-17T09:19:20.421Z,6.30
2023-09-17T09:21:46.996Z,6.90
2023-09-17T09:24:13.563Z,7.22
2023-09-17T09:26:41.255Z,6.05
2023-09-17T09:29:09.606Z,8.35
2023-09-17T09:31:36.662Z,6.40
2023-09-17T09:34:04.241Z,6.80
2023-09-17T09:36:35.581Z,6.50
2023-09-17T09:39:03.120Z,5.22
2023-09-17T09:41:34.490Z,5.28
2023-09-17T09:44:01.631Z,5.80
2023-09-17T09:46:29.967Z,7.43
2023-09-17T09:49:03.592Z,6.85
2023-09-17T09:51:32.450Z,4.45
2023-09-17T09:53:59.063Z,7.50
2023-09-17T09:56:29.684Z,6.45
2023-09-17T09:58:57.102Z,5.22
2023-09-17T10:01:24.069Z,5.70
2023-09-17T10:03:52.004Z,5.63
2023-09-17T10:06:19.225Z,7.35
2023-09-17T10:08:47.673Z,6.07
2023-09-17T10:11:15.846Z,6.40
2023-09-17T10:13:43.663Z,4.93
2023-09-17T10:16:10.806Z,5.20
2023-09-17T10:18:39.650Z,5.15
2023-09-17T10:21:06.817Z,5.20
2023-09-17T10:23:35.105Z,6.45
2023-09-17T10:26:04.338Z,6.45
2023-09-17T10:28:32.582Z,5.30
2023-09-17T10:31:01.037Z,6.97
2023-09-17T10:33:30.856Z,6.45
2023-09-17T10:36:00.471Z,5.75
2023-09-17T10:38:28.646Z,7.45
2023-09-17T10:40:57.593Z,4.87
2023-09-17T10:43:25.658Z,7.32
2023-09-17T10:45:56.118Z,6.60
2023-09-17T10:48:23.055Z,6.60
2023-09-17T10:50:50.564Z,4.50
2023-09-17T10:53:17.372Z,8.32
2023-09-17T10:55:54.291Z,8.02
2023-09-17T10:58:37.891Z,5.40
2023-09-17T11:01:07.755Z,6.57
2023-09-17T11:03:38.451Z,9.40
2023-09-17T11:06:15.113Z,4.70
2023-09-17T11:08:46.114Z,6.15
2023-09-17T11:11:42.050Z,3.97
2023-09-17T11:14:09.794Z,5.93
2023-09-17T11:16:37.656Z,7.05
2023-09-17T11:19:04.572Z,4.20
2023-09-17T11:21:31.170Z,5.13
2023-09-17T11:23:57.968Z,4.95
2023-09-17T11:26:28.357Z,4.03
2023-09-17T11:28:57.272Z,4.10
2023-09-17T11:31:27.641Z,4.00
2023-09-17T11:33:55.767Z,4.53
2023-09-17T11:36:22.749Z,4.78
2023-09-17T11:38:49.411Z,7.30
2023-09-17T11:41:17.501Z,4.25
2023-09-17T11:43:47.570Z,4.47
2023-09-17T11:46:15.224Z,3.95
2023-09-17T11:48:45.382Z,5.28
2023-09-17T11:51:20.981Z,4.43
2023-09-17T11:54:01.468Z,3.90
2023-09-17T11:56:31.440Z,4.35
2023-09-17T11:59:03.856Z,5.28
2023-09-17T12:01:44.717Z,4.65
2023-09-17T12:04:12.595Z,4.85
2023-09-17T12:06:42.302Z,3.88
2023-09-17T12:09:18.247Z,3.00
2023-09-17T12:11:50.061Z,3.92
2023-09-17T12:14:17.859Z,3.13
2023-09-17T12:16:47.351Z,3.13
2023-09-17T12:19:18.479Z,6.05
2023-09-17T12:21:48.106Z,4.30
2023-09-17T12:24:27.271Z,3.78
2023-09-17T12:27:07.138Z,2.72
2023-09-17T12:29:38.734Z,4.47
2023-09-17T12:32:06.389Z,3.63
2023-09-17T12:34:37.275Z,3.13
2023-09-17T12:37:06.210Z,5.88
2023-09-17T12:39:32.945Z,4.15
2023-09-17T12:41:59.506Z,5.70
2023-09-17T12:44:27.480Z,3.38
2023-09-17T12:46:54.655Z,3.50
2023-09-17T12:49:25.125Z,6.30
2023-09-17T12:51:54.817Z,3.47
2023-09-17T12:54:22.839Z,2.90
2023-09-17T12:56:51.055Z,2.85
2023-09-17T12:59:27.219Z,6.25
2023-09-17T13:01:55.084Z,2.50
2023-09-17T13:04:52.375Z,5.03
2023-09-17T13:07:21.730Z,3.20
2023-09-17T13:09:50.532Z,3.72
2023-09-17T13:12:18.709Z,3.50
2023-09-17T13:14:46.362Z,2.40
2023-09-17T13:17:13.211Z,4.70
2023-09-17T13:19:40.207Z,3.03
2023-09-17T13:22:07.031Z,4.57
2023-09-17T13:24:35.383Z,3.10
2023-09-17T13:27:04.521Z,4.00
2023-09-17T13:32:12.726Z,4.47
2023-09-17T13:34:42.179Z,2.70
2023-09-17T13:37:09.996Z,2.38
2023-09-17T13:39:44.389Z,5.20
2023-09-17T13:42:11.527Z,2.47
2023-09-17T13:44:38.467Z,2.28
2023-09-17T13:47:21.587Z,2.58
2023-09-17T13:49:49.362Z,4.93
2023-09-17T13:52:16.043Z,5.45
2023-09-17T13:54:43.988Z,4.75
2023-09-17T13:57:11.228Z,4.20
2023-09-17T13:59:37.792Z,3.38
2023-09-17T14:02:05.213Z,4.40
2023-09-17T14:04:32.102Z,3.53
2023-09-17T14:06:58.949Z,3.03
2023-09-17T14:09:25.798Z,3.03
2023-09-17T14:11:52.574Z,2.55
2023-09-17T14:14:19.440Z,4.75
2023-09-17T14:16:47.363Z,4.15
2023-09-17T14:19:18.981Z,3.03
2023-09-17T14:21:46.720Z,4.38
2023-09-17T14:24:13.469Z,5.50
2023-09-17T14:26:40.414Z,2.38
2023-09-17T14:29:07.026Z,3.67
2023-09-17T14:31:33.789Z,2.42
2023-09-17T14:34:01.110Z,7.47
2023-09-17T14:36:27.806Z,6.10
2023-09-17T14:38:56.057Z,4.07
2023-09-17T14:41:22.764Z,5.00
2023-09-17T14:43:49.394Z,3.58
2023-09-17T14:46:15.974Z,2.45
2023-09-17T14:48:42.541Z,3.65
2023-09-17T14:51:10.257Z,3.63
2023-09-17T14:53:36.893Z,3.83
2023-09-17T14:56:03.543Z,3.47
2023-09-17T14:58:30.167Z,5.35
2023-09-17T15:00:56.819Z,3.03
2023-09-17T15:03:26.242Z,2.42
2023-09-17T15:05:53.130Z,3.70
2023-09-17T15:08:19.754Z,3.28
2023-09-17T15:10:46.559Z,4.03
2023-09-17T15:13:13.401Z,4.47
2023-09-17T15:15:40.607Z,3.80
2023-09-17T15:18:07.480Z,5.35
2023-09-17T15:20:35.202Z,2.00
2023-09-17T15:23:01.862Z,2.22
2023-09-17T15:25:28.513Z,2.70
2023-09-17T15:27:55.074Z,2.28
2023-09-17T15:30:23.154Z,3.30
2023-09-17T15:32:49.922Z,4.00
2023-09-17T15:35:21.110Z,5.78
2023-09-17T15:37:48.140Z,5.97
2023-09-17T15:40:15.006Z,3.20
2023-09-17T15:42:45.240Z,3.38
2023-09-17T15:45:12.776Z,5.68
2023-09-17T15:47:41.518Z,4.68
2023-09-17T15:50:11.719Z,3.80
2023-09-17T15:52:38.448Z,4.38
2023-09-17T15:55:05.675Z,5.70
2023-09-17T15:57:32.462Z,2.80
2023-09-17T15:59:59.619Z,2.90
2023-09-17T16:02:26.465Z,7.15
2023-09-17T16:04:53.410Z,3.67
2023-09-17T16:07:20.239Z,3.35
2023-09-17T16:09:46.958Z,3.15
2023-09-17T16:12:13.519Z,3.60
2023-09-17T16:14:40.092Z,3.55
2023-09-17T16:17:06.878Z,3.60
2023-09-17T16:19:44.859Z,4.22
2023-09-17T16:22:12.973Z,5.82
2023-09-17T16:24:39.546Z,5.97
2023-09-17T16:27:08.397Z,8.95
2023-09-17T16:29:35.008Z,5.30
2023-09-17T16:32:01.719Z,7.57
2023-09-17T16:34:28.488Z,4.30
2023-09-17T16:36:55.112Z,4.80
2023-09-17T16:39:21.725Z,5.07
2023-09-17T16:41:48.433Z,3.95
2023-09-17T16:44:15.099Z,4.43
2023-09-17T16:46:41.664Z,6.43
2023-09-17T16:49:08.367Z,4.97
2023-09-17T16:51:37.882Z,6.25
2023-09-17T16:54:04.731Z,9.77
2023-09-17T16:56:31.421Z,8.95
2023-09-17T16:59:02.763Z,6.53
2023-09-17T17:01:32.646Z,9.57
2023-09-17T17:03:59.413Z,7.50
2023-09-17T17:06:26.145Z,6.38
2023-09-17T17:08:54.678Z,6.57
2023-09-17T17:11:22.003Z,6.13
2023-09-17T17:13:48.777Z,6.35
2023-09-17T17:16:15.486Z,10.13
2023-09-17T17:18:42.170Z,7.25
2023-09-17T17:21:09.693Z,8.52
2023-09-17T17:23:37.204Z,7.82
2023-09-17T17:26:04.121Z,6.53
2023-09-17T17:28:30.779Z,6.75
2023-09-17T17:30:57.502Z,7.80
2023-09-17T17:33:24.305Z,6.82
2023-09-17T17:35:50.841Z,9.18
2023-09-17T17:38:17.812Z,7.57
2023-09-17T17:40:44.394Z,11.05
2023-09-17T17:43:10.985Z,6.25
2023-09-17T17:45:38.752Z,6.60
2023-09-17T17:48:06.100Z,4.93
2023-09-17T17:50:32.867Z,5.38
2023-09-17T17:52:59.609Z,5.53
2023-09-17T17:55:26.332Z,5.57
2023-09-17T17:57:53.032Z,6.93
2023-09-17T18:00:19.715Z,6.35
2023-09-17T18:02:48.421Z,7.00
2023-09-17T18:05:15.193Z,8.13
2023-09-17T18:07:43.845Z,6.45
2023-09-17T18:10:11.554Z,6.20
2023-09-17T18:12:39.867Z,7.03
2023-09-17T18:15:09.379Z,9.38
2023-09-17T18:17:37.065Z,11.15
2023-09-17T18:20:04.069Z,12.13
2023-09-17T18:22:31.348Z,9.77
2023-09-17T18:24:57.966Z,15.23
2023-09-17T18:27:25.270Z,15.30
2023-09-17T18:29:51.944Z,16.60
2023-09-17T18:32:19.365Z,18.45
2023-09-17T18:34:46.045Z,13.30
2023-09-17T18:37:12.687Z,11.30
2023-09-17T18:39:39.340Z,11.98
2023-09-17T18:42:06.337Z,13.27
2023-09-17T18:44:33.630Z,11.13
2023-09-17T18:47:00.246Z,12.02
2023-09-17T18:49:27.000Z,12.82
2023-09-17T18:51:54.556Z,7.80
2023-09-17T18:54:21.762Z,8.35
2023-09-17T18:56:48.501Z,9.10
2023-09-17T18:59:16.529Z,9.88
2023-09-17T19:01:43.355Z,11.98
2023-09-17T19:04:10.092Z,10.50
2023-09-17T19:06:37.240Z,11.50
2023-09-17T19:09:07.092Z,9.80
2023-09-17T19:11:34.849Z,9.65
2023-09-17T19:14:01.932Z,5.85
2023-09-17T19:16:29.059Z,7.40
2023-09-17T19:18:55.659Z,7.53
2023-09-17T19:21:23.840Z,5.50
2023-09-17T19:23:51.828Z,8.93
2023-09-17T19:26:20.830Z,6.82
2023-09-17T19:28:47.848Z,7.65
2023-09-17T19:31:14.562Z,4.95
2023-09-17T19:33:41.346Z,5.85
2023-09-17T19:36:08.048Z,5.82
2023-09-17T19:38:35.651Z,5.88
2023-09-17T19:41:03.205Z,7.60
2023-09-17T19:43:29.890Z,4.50
2023-09-17T19:45:57.952Z,11.73
2023-09-17T19:48:25.367Z,6.68
2023-09-17T19:50:52.042Z,5.80
2023-09-17T19:53:21.989Z,5.07
2023-09-17T19:55:48.661Z,7.85
2023-09-17T19:58:15.657Z,7.85
2023-09-17T20:00:42.840Z,5.82
2023-09-17T20:03:09.958Z,8.70
2023-09-17T20:05:37.073Z,6.70
2023-09-17T20:08:08.382Z,7.35
2023-09-17T20:10:37.748Z,7.93
2023-09-17T20:13:04.453Z,9.15
2023-09-17T20:15:31.079Z,7.40
2023-09-17T20:17:59.106Z,10.65
2023-09-17T20:20:27.049Z,12.60
2023-09-17T20:22:54.040Z,9.65
2023-09-17T20:25:22.738Z,10.88
2023-09-17T20:28:10.255Z,9.50
2023-09-17T20:30:40.381Z,10.63
2023-09-17T20:33:08.096Z,10.10
2023-09-17T20:35:37.819Z,11.63
2023-09-17T20:38:04.942Z,8.15
2023-09-17T20:40:31.672Z,9.77
2023-09-17T20:42:58.889Z,7.47
2023-09-17T20:45:25.626Z,6.28
2023-09-17T20:47:54.328Z,9.15
2023-09-17T20:50:21.338Z,8.90
2023-09-17T20:52:47.992Z,7.55
2023-09-17T20:55:14.589Z,8.13
2023-09-17T20:57:41.163Z,11.02
2023-09-17T21:00:08.665Z,8.50
2023-09-17T21:02:35.358Z,9.32
2023-09-17T21:05:03.441Z,11.45
2023-09-17T21:07:30.202Z,6.82
2023-09-17T21:09:57.681Z,9.95
2023-09-17T21:12:24.936Z,11.20
2023-09-17T21:14:52.031Z,6.70
2023-09-17T21:17:19.660Z,9.98
2023-09-17T21:19:46.717Z,8.88
2023-09-17T21:22:13.754Z,9.27
2023-09-17T21:24:40.317Z,6.95
2023-09-17T21:27:07.150Z,7.88
2023-09-17T21:29:36.764Z,8.45
2023-09-17T21:32:03.840Z,7.55
2023-09-17T21:34:30.784Z,12.32
2023-09-17T21:36:57.471Z,7.30
2023-09-17T21:39:32.416Z,7.47
2023-09-17T21:41:59.307Z,8.27
2023-09-17T21:44:26.225Z,11.23
2023-09-17T21:46:56.124Z,8.00
2023-09-17T21:49:23.055Z,7.30
2023-09-17T21:51:49.580Z,7.35
2023-09-17T21:54:16.232Z,8.57
2023-09-17T21:56:43.289Z,8.45
2023-09-17T21:59:10.291Z,9.02
2023-09-17T22:01:36.956Z,7.93
2023-09-17T22:04:04.133Z,7.43
2023-09-17T22:06:30.769Z,8.98
2023-09-17T22:08:57.357Z,7.57
2023-09-17T22:11:23.886Z,6.82
2023-09-17T22:13:50.645Z,9.73
2023-09-17T22:16:17.341Z,8.95
2023-09-17T22:18:43.947Z,8.93
2023-09-17T22:21:10.750Z,6.93
2023-09-17T22:23:37.664Z,13.73
2023-09-17T22:26:08.654Z,11.68
2023-09-17T22:28:35.834Z,10.43
2023-09-17T22:31:12.955Z,9.45
2023-09-17T22:33:41.283Z,10.45
2023-09-17T22:36:09.709Z,12.02
2023-09-17T22:38:39.535Z,10.23
2023-09-17T22:41:06.245Z,11.35
2023-09-17T22:43:32.850Z,10.45
2023-09-17T22:45:59.471Z,9.70
2023-09-17T22:48:26.411Z,9.13
2023-09-17T22:50:55.396Z,12.65
2023-09-17T22:53:22.133Z,14.35
2023-09-17T22:55:48.724Z,11.43
2023-09-17T22:58:15.288Z,11.35
2023-09-17T23:00:44.874Z,13.88
2023-09-17T23:03:11.711Z,10.35
2023-09-17T23:05:38.566Z,9.52
2023-09-17T23:08:05.454Z,9.60
2023-09-17T23:10:33.024Z,11.80
2023-09-17T23:12:59.567Z,11.73
2023-09-17T23:15:28.520Z,11.52
2023-09-17T23:17:55.164Z,12.52
2023-09-17T23:20:21.801Z,14.23
2023-09-17T23:22:48.455Z,11.82
2023-09-17T23:25:15.541Z,10.45
2023-09-17T23:27:42.218Z,11.25
2023-09-17T23:30:09.382Z,12.77
2023-09-17T23:32:36.145Z,8.48
2023-09-17T23:35:05.953Z,10.02
2023-09-17T23:37:32.973Z,8.52
2023-09-17T23:39:59.702Z,13.48
2023-09-17T23:42:26.353Z,13.23
2023-09-17T23:44:53.068Z,9.80
2023-09-17T23:47:19.730Z,11.75
2023-09-17T23:49:46.316Z,15.60
2023-09-17T23:52:12.996Z,11.90
2023-09-17T23:54:39.638Z,16.92
2023-09-17T23:57:06.464Z,13.90
2023-09-17T23:59:40.688Z,11.85
